Time;durP1;ratioP1;P1;durP2;ratioP2;P2;SDS_P1;SDS_P2;PMS_P1;PMS_P2;Temp;Humidity;BMP_temperature;BMP_pressure;BME280_temperature;BME280_humidity;BME280_pressure;Samples;Min_cycle;Max_cycle;Signal;HPM_P1;HPM_P2
2022/03/25 00:03:45;;;;;;;104.17;61.30;;;;;;;4.27;64.94;101362.17;2844242;83;21057;-59
2022/03/25 00:07:47;;;;;;;106.30;60.90;;;;;;;4.20;65.50;101361.54;2857823;82;21043;-59
2022/03/25 00:11:48;;;;;;;103.25;56.58;;;;;;;4.20;65.55;101354.11;2843048;83;20986;-59
2022/03/25 00:15:50;;;;;;;89.17;51.40;;;;;;;4.17;65.44;101355.55;2865073;82;21003;-61
2022/03/25 00:19:52;;;;;;;87.10;55.50;;;;;;;4.10;65.46;101357.55;2839283;82;20993;-59
2022/03/25 00:23:54;;;;;;;92.35;54.55;;;;;;;3.99;65.38;101354.01;2861272;82;21082;-60
2022/03/25 00:27:56;;;;;;;87.00;53.35;;;;;;;3.96;65.76;101354.12;2828195;82;21071;-59
2022/03/25 00:31:57;;;;;;;90.53;53.02;;;;;;;3.84;66.57;101352.33;2846056;82;21466;-59
2022/03/25 00:36:01;;;;;;;91.67;55.45;;;;;;;3.65;66.81;101352.59;2845472;82;21432;-58
2022/03/25 00:40:21;;;;;;;92.47;54.40;;;;;;;3.48;67.51;101348.78;2855795;83;21022;-61
2022/03/25 00:44:25;;;;;;;122.07;65.55;;;;;;;3.39;68.03;101345.17;2829698;81;21012;-59
2022/03/25 00:48:32;;;;;;;104.65;64.67;;;;;;;3.29;68.93;101342.84;2853940;83;21478;-59
2022/03/25 00:52:34;;;;;;;109.12;66.25;;;;;;;3.33;68.82;101341.42;2833870;83;21049;-59
2022/03/25 00:56:35;;;;;;;95.40;60.03;;;;;;;3.37;68.65;101347.84;2863807;82;20987;-58
2022/03/25 01:00:37;;;;;;;113.60;63.33;;;;;;;3.37;68.42;101343.06;2826280;82;21069;-59
2022/03/25 01:04:39;;;;;;;96.20;58.00;;;;;;;3.40;68.31;101344.27;2848839;81;21087;-59
2022/03/25 01:08:41;;;;;;;101.25;57.62;;;;;;;3.39;68.01;101340.76;2829043;82;21036;-61
2022/03/25 01:12:43;;;;;;;89.28;54.40;;;;;;;3.39;67.73;101340.76;2848981;80;20972;-60
2022/03/25 01:16:45;;;;;;;93.80;58.05;;;;;;;3.39;67.82;101337.28;2825128;82;21099;-59
2022/03/25 01:20:46;;;;;;;96.02;58.70;;;;;;;3.24;68.31;101336.89;2874978;81;20975;-58
2022/03/25 01:24:49;;;;;;;90.90;56.70;;;;;;;3.19;67.71;101337.52;2833284;83;20992;-58
2022/03/25 01:28:52;;;;;;;99.20;56.10;;;;;;;3.21;68.01;101345.33;2863891;82;21118;-60
2022/03/25 01:32:57;;;;;;;110.45;62.20;;;;;;;3.21;68.09;101337.00;2834615;79;21021;-58
2022/03/25 01:37:00;;;;;;;97.57;59.60;;;;;;;3.18;68.21;101339.75;2858036;81;21023;-59
2022/03/25 01:41:03;;;;;;;90.45;53.73;;;;;;;3.17;67.96;101339.78;2832056;81;21118;-60
2022/03/25 01:45:11;;;;;;;90.28;53.92;;;;;;;3.15;68.38;101337.22;2854879;82;20991;-59
2022/03/25 01:49:13;;;;;;;92.42;53.80;;;;;;;3.11;68.21;101340.84;2822074;81;21080;-59
2022/03/25 01:53:19;;;;;;;107.75;52.73;;;;;;;3.08;68.02;101343.58;2805556;82;21036;-59
2022/03/25 01:57:25;;;;;;;89.90;52.70;;;;;;;3.03;67.94;101335.00;2840975;82;21026;-61
2022/03/25 02:01:28;;;;;;;;;;;;;;;2.93;68.22;101339.23;2827166;82;21068;-59
2022/03/25 02:05:31;;;;;;;87.08;53.00;;;;;;;2.75;69.60;101343.77;2804155;82;20104;-58
2022/03/25 02:09:32;;;;;;;94.10;56.02;;;;;;;2.53;70.72;101339.20;2824184;81;21046;-58
2022/03/25 02:13:34;;;;;;;91.25;54.60;;;;;;;2.32;71.27;101342.89;2859132;83;21004;-58
2022/03/25 02:17:41;;;;;;;90.40;53.75;;;;;;;2.28;71.14;101341.27;2831401;83;21023;-59
2022/03/25 02:21:42;;;;;;;93.07;52.95;;;;;;;2.30;70.61;101339.45;2859159;83;21044;-61
2022/03/25 02:25:52;;;;;;;81.25;53.95;;;;;;;2.34;70.39;101338.45;2836361;81;21006;-60
2022/03/25 02:29:54;;;;;;;82.02;52.93;;;;;;;2.34;70.42;101338.92;2853073;82;20990;-59
2022/03/25 02:34:03;;;;;;;82.82;52.88;;;;;;;2.34;70.24;101340.23;2864537;82;21007;-58
2022/03/25 02:38:08;;;;;;;91.17;55.65;;;;;;;2.37;69.97;101340.13;2830360;83;20999;-59
2022/03/25 02:42:10;;;;;;;87.47;54.70;;;;;;;2.32;69.58;101340.27;2860729;80;20956;-58
2022/03/25 02:46:16;;;;;;;95.85;53.58;;;;;;;2.30;69.72;101334.20;2829219;82;21003;-61
2022/03/25 02:50:25;;;;;;;95.50;55.23;;;;;;;2.33;70.03;101339.83;2861992;81;21119;-58
2022/03/25 02:54:26;;;;;;;88.78;50.35;;;;;;;2.38;70.30;101335.28;2830676;82;21053;-58
2022/03/25 02:58:28;;;;;;;99.30;58.02;;;;;;;2.43;70.20;101332.94;2875915;82;20971;-59
2022/03/25 03:03:01;;;;;;;85.77;56.70;;;;;;;2.48;70.04;101334.11;2799346;82;20949;-59
2022/03/25 03:07:04;;;;;;;88.05;54.95;;;;;;;2.49;69.94;101335.83;2848547;83;21003;-58
2022/03/25 03:11:06;;;;;;;73.33;48.58;;;;;;;2.47;70.12;101332.83;2824890;82;21037;-61
2022/03/25 03:15:27;;;;;;;80.97;50.08;;;;;;;2.49;70.22;101334.95;2842112;83;21043;-60
2022/03/25 03:19:30;;;;;;;79.95;47.00;;;;;;;2.47;69.94;101336.77;2830713;82;21045;-61
2022/03/25 03:23:32;;;;;;;84.07;49.20;;;;;;;2.47;70.80;101331.52;2849659;82;21048;-59
2022/03/25 03:27:33;;;;;;;86.63;46.73;;;;;;;2.40;70.79;101328.22;2815107;82;20963;-59
2022/03/25 03:31:35;;;;;;;79.32;45.73;;;;;;;2.41;70.85;101336.06;2818963;82;20992;-58
2022/03/25 03:35:37;;;;;;;72.72;47.03;;;;;;;2.41;71.48;101335.19;2836944;83;20985;-59
2022/03/25 03:39:55;;;;;;;76.20;45.52;;;;;;;2.32;71.82;101335.48;2856309;81;20999;-59
2022/03/25 03:43:57;;;;;;;69.35;45.58;;;;;;;2.21;72.34;101330.56;2845348;81;20970;-59
2022/03/25 03:47:59;;;;;;;69.82;42.95;;;;;;;2.16;72.16;101332.44;2840772;82;21001;-58
2022/03/25 03:52:02;;;;;;;77.03;45.58;;;;;;;2.02;72.53;101342.04;2867279;80;20968;-60
2022/03/25 03:56:14;;;;;;;68.35;45.12;;;;;;;1.98;72.12;101340.82;2830701;82;21042;-58
2022/03/25 04:00:16;;;;;;;87.15;47.73;;;;;;;2.06;72.08;101342.35;2861509;82;21031;-58
2022/03/25 04:04:20;;;;;;;69.37;41.58;;;;;;;2.11;71.66;101342.63;2829374;83;20976;-58
2022/03/25 04:08:23;;;;;;;72.22;42.98;;;;;;;2.13;71.34;101340.81;2892504;80;21040;-59
2022/03/25 04:12:24;;;;;;;81.32;44.55;;;;;;;2.24;70.82;101344.91;2844586;82;21059;-59
2022/03/25 04:16:26;;;;;;;71.25;45.90;;;;;;;2.23;71.17;101344.50;2838897;83;21068;-61
2022/03/25 04:20:28;;;;;;;81.50;45.17;;;;;;;2.03;72.83;101349.88;2818375;83;20947;-59
2022/03/25 04:24:51;;;;;;;66.15;40.25;;;;;;;1.76;74.72;101351.53;2879823;81;21064;-60
2022/03/25 04:28:52;;;;;;;66.35;42.40;;;;;;;1.63;75.15;101346.61;2856140;81;21023;-60
2022/03/25 04:32:55;;;;;;;76.20;44.48;;;;;;;1.56;75.41;101350.31;2879959;80;20996;-61
2022/03/25 04:36:56;;;;;;;81.12;47.95;;;;;;;1.49;75.50;101350.08;2882331;80;21030;-62
2022/03/25 04:40:58;;;;;;;84.40;42.85;;;;;;;1.49;74.53;101352.23;2878684;80;21023;-61
2022/03/25 04:45:09;;;;;;;78.10;43.38;;;;;;;1.47;74.95;101350.11;2882919;80;21474;-61
2022/03/25 04:49:11;;;;;;;72.58;43.80;;;;;;;1.54;74.73;101352.12;2870565;80;20988;-61
2022/03/25 04:53:13;;;;;;;73.80;45.48;;;;;;;1.74;74.30;101354.18;2879694;81;21019;-61
2022/03/25 04:57:14;;;;;;;87.95;45.10;;;;;;;1.92;73.54;101351.94;2881206;81;21079;-62
2022/03/25 05:05:34;;;;;;;78.37;43.40;;;;;;;1.83;74.72;101364.44;2799075;82;21053;-58
2022/03/25 05:09:35;;;;;;;69.75;43.65;;;;;;;1.62;75.63;101368.96;2775908;83;21069;-59
2022/03/25 05:13:37;;;;;;;88.97;45.73;;;;;;;1.80;76.26;101365.83;2791953;84;20993;-59
2022/03/25 05:17:44;;;;;;;66.40;41.92;;;;;;;2.16;75.46;101366.56;2780271;84;20981;-59
2022/03/25 05:22:00;;;;;;;74.90;44.73;;;;;;;2.46;73.62;101363.94;2798715;84;21056;-59
2022/03/25 05:26:02;;;;;;;67.62;42.05;;;;;;;2.77;72.89;101365.16;2781769;84;21001;-59
2022/03/25 05:30:05;;;;;;;70.17;41.63;;;;;;;3.06;72.10;101378.27;2785457;84;21065;-58
2022/03/25 05:34:11;;;;;;;62.67;41.50;;;;;;;3.30;71.92;101377.91;2790039;82;21053;-58
2022/03/25 05:38:13;;;;;;;70.57;42.35;;;;;;;3.61;70.99;101391.78;2786264;84;21137;-58
2022/03/25 05:42:16;;;;;;;64.77;40.40;;;;;;;3.80;70.07;101392.84;2792109;84;21091;-58
2022/03/25 05:46:18;;;;;;;66.33;41.73;;;;;;;4.15;69.19;101393.78;2786109;83;20994;-57
2022/03/25 05:50:20;;;;;;;56.65;38.20;;;;;;;4.40;68.28;101393.73;2863509;80;69966;-75
2022/03/25 05:54:21;;;;;;;61.53;39.55;;;;;;;4.67;67.66;101396.67;2900844;80;21153;-77
2022/03/25 05:58:23;;;;;;;59.75;37.95;;;;;;;4.77;67.47;101399.80;2900963;80;20990;-77
2022/03/25 06:02:24;;;;;;;73.10;42.33;;;;;;;4.85;67.72;101406.94;2900502;80;21014;-77
2022/03/25 06:06:26;;;;;;;62.03;38.48;;;;;;;4.87;68.13;101398.50;2900678;80;21567;-74
2022/03/25 06:10:27;;;;;;;57.70;34.25;;;;;;;5.14;68.54;101400.48;2900023;81;21030;-77
2022/03/25 06:14:29;;;;;;;49.03;30.15;;;;;;;5.20;68.15;101409.92;2900633;80;21065;-77
2022/03/25 06:18:32;;;;;;;55.05;34.40;;;;;;;5.37;68.14;101418.45;2900142;80;21601;-77
2022/03/25 06:22:34;;;;;;;66.50;38.55;;;;;;;5.66;67.54;101424.28;2898567;80;21002;-74
2022/03/25 06:26:36;;;;;;;62.40;38.15;;;;;;;5.89;67.65;101418.91;2900633;80;21077;-76
2022/03/25 06:30:39;;;;;;;64.42;40.12;;;;;;;6.07;67.12;101422.09;2897546;80;21046;-75
2022/03/25 06:34:40;;;;;;;55.67;33.98;;;;;;;6.21;67.29;101421.49;2898328;80;21018;-74
2022/03/25 06:38:43;;;;;;;77.22;41.88;;;;;;;6.34;67.32;101417.82;2899224;80;21014;-75
2022/03/25 06:42:45;;;;;;;53.75;36.95;;;;;;;6.54;66.76;101426.61;2901546;80;21018;-75
2022/03/25 06:46:47;;;;;;;60.10;38.10;;;;;;;6.76;67.90;101421.63;2900607;80;20998;-75
2022/03/25 06:50:49;;;;;;;50.15;32.10;;;;;;;6.92;66.51;101430.55;2899255;80;20998;-77
2022/03/25 06:54:51;;;;;;;68.10;35.63;;;;;;;7.06;65.35;101435.17;2900811;80;21014;-75
2022/03/25 06:58:54;;;;;;;61.75;37.03;;;;;;;7.32;66.39;101438.80;2900426;80;21045;-76
2022/03/25 07:02:56;;;;;;;64.00;34.83;;;;;;;7.54;66.04;101436.78;2900720;80;21668;-76
2022/03/25 07:06:59;;;;;;;48.78;33.08;;;;;;;7.82;65.74;101437.99;2900648;80;21577;-75
2022/03/25 07:11:01;;;;;;;50.33;32.03;;;;;;;7.97;64.23;101440.79;2899506;80;21018;-76
2022/03/25 07:15:05;;;;;;;57.08;35.00;;;;;;;8.19;64.11;101437.00;2898347;80;20974;-76
2022/03/25 07:19:06;;;;;;;51.30;34.92;;;;;;;8.52;64.43;101443.63;2885278;80;21010;-76
2022/03/25 07:23:08;;;;;;;54.60;32.78;;;;;;;8.87;63.94;101439.98;2866293;81;21600;-75
2022/03/25 07:27:09;;;;;;;55.85;36.55;;;;;;;9.06;63.41;101448.22;2860037;81;21531;-74
2022/03/25 07:31:11;;;;;;;51.48;33.92;;;;;;;9.16;61.75;101440.59;2872741;81;21550;-74
2022/03/25 07:35:13;;;;;;;51.70;36.10;;;;;;;9.28;61.47;101450.02;2863549;81;21002;-75
2022/03/25 07:39:15;;;;;;;64.55;36.17;;;;;;;9.49;61.90;101448.39;2850997;81;21029;-76
2022/03/25 07:43:16;;;;;;;64.40;38.80;;;;;;;9.50;60.52;101454.08;2869323;81;21005;-76
2022/03/25 07:47:18;;;;;;;54.77;37.05;;;;;;;9.53;59.67;101452.56;2878909;81;21009;-76
2022/03/25 07:51:19;;;;;;;63.87;40.17;;;;;;;9.58;59.04;101450.48;2846293;81;21096;-75
2022/03/25 07:55:21;;;;;;;53.78;34.83;;;;;;;9.72;60.17;101450.98;2852366;81;21017;-75
2022/03/25 07:59:23;;;;;;;67.65;41.90;;;;;;;9.90;60.80;101451.32;2869413;81;21006;-76
2022/03/25 08:03:24;;;;;;;54.18;39.42;;;;;;;10.07;59.92;101458.27;2849451;81;21018;-73
2022/03/25 08:07:26;;;;;;;74.27;46.20;;;;;;;10.19;57.65;101468.61;2875856;81;21017;-75
2022/03/25 08:11:28;;;;;;;71.02;44.95;;;;;;;10.39;58.46;101473.55;2884127;81;21037;-75
2022/03/25 08:15:30;;;;;;;79.45;45.50;;;;;;;10.61;58.79;101466.08;2856691;81;21021;-76
2022/03/25 08:19:32;;;;;;;72.70;45.95;;;;;;;10.55;56.54;101472.63;2868596;81;21569;-75
2022/03/25 08:27:49;;;;;;;72.62;46.80;;;;;;;11.14;57.94;101472.89;2877882;81;21014;-75
2022/03/25 08:31:51;;;;;;;64.77;42.03;;;;;;;11.37;56.67;101475.38;2849294;81;21541;-73
2022/03/25 08:35:52;;;;;;;58.58;39.53;;;;;;;11.54;55.30;101482.73;2871760;81;21085;-76
2022/03/25 08:39:54;;;;;;;60.67;40.45;;;;;;;11.85;55.36;101476.17;2878996;81;21661;-74
2022/03/25 08:43:55;;;;;;;65.75;37.45;;;;;;;12.12;54.04;101477.91;2849858;81;21021;-74
2022/03/25 08:47:58;;;;;;;66.92;41.30;;;;;;;12.38;52.51;101479.72;2877794;81;21560;-75
2022/03/25 08:52:00;;;;;;;57.85;38.70;;;;;;;12.56;52.37;101477.55;2872400;81;21053;-75
2022/03/25 08:56:02;;;;;;;57.95;37.40;;;;;;;12.64;53.36;101478.34;2853175;81;21022;-73
2022/03/25 09:00:08;;;;;;;62.43;34.83;;;;;;;12.83;52.19;101475.20;2860541;81;21030;-75
2022/03/25 09:04:09;;;;;;;48.48;33.60;;;;;;;12.93;50.14;101483.41;2850584;81;21045;-73
2022/03/25 09:08:11;;;;;;;56.77;36.68;;;;;;;13.08;51.26;101484.09;2851295;81;21017;-73
2022/03/25 09:12:13;;;;;;;59.63;37.33;;;;;;;13.25;49.21;101478.35;2878412;80;21076;-71
2022/03/25 09:16:16;;;;;;;53.23;35.08;;;;;;;13.48;48.41;101479.81;2872906;81;21473;-73
2022/03/25 09:20:19;;;;;;;64.00;37.23;;;;;;;13.53;48.52;101481.65;2861096;81;21041;-71
2022/03/25 09:24:21;;;;;;;53.98;38.13;;;;;;;13.73;49.19;101479.28;2845868;81;21036;-73
2022/03/25 09:28:22;;;;;;;53.98;34.45;;;;;;;13.93;49.11;101483.58;2865319;81;21057;-72
2022/03/25 09:32:24;;;;;;;48.10;37.90;;;;;;;14.09;48.77;101483.27;2868723;81;21026;-72
2022/03/25 09:36:26;;;;;;;54.18;39.50;;;;;;;13.96;48.96;101484.71;2853474;81;20993;-72
2022/03/25 09:40:27;;;;;;;57.67;38.78;;;;;;;13.88;49.61;101492.45;2851594;81;21053;-71
2022/03/25 09:44:29;;;;;;;63.15;36.15;;;;;;;14.05;50.04;101483.98;2867924;81;21523;-70
2022/03/25 09:48:31;;;;;;;73.05;39.55;;;;;;;14.28;49.30;101485.34;2856536;81;21499;-71
2022/03/25 09:52:34;;;;;;;55.48;37.08;;;;;;;14.51;49.53;101481.32;2875649;81;21025;-72
2022/03/25 09:56:35;;;;;;;58.08;35.05;;;;;;;14.59;48.32;101486.94;2859783;81;20990;-74
2022/03/25 10:00:37;;;;;;;50.30;36.40;;;;;;;14.85;48.43;101482.66;2861867;81;20993;-73
2022/03/25 10:04:44;;;;;;;41.58;29.05;;;;;;;14.91;47.12;101482.66;2878410;81;21672;-74
2022/03/25 10:08:58;;;;;;;64.07;38.58;;;;;;;15.10;45.67;101477.97;2852209;81;21076;-72
2022/03/25 10:13:04;;;;;;;53.90;35.00;;;;;;;15.32;48.54;101476.19;2875025;81;21045;-73
2022/03/25 10:17:09;;;;;;;56.63;35.20;;;;;;;15.41;47.53;101470.91;2867493;81;21068;-71
2022/03/25 10:21:10;;;;;;;43.77;31.70;;;;;;;15.53;46.94;101475.76;2872810;81;21067;-73
2022/03/25 10:25:12;;;;;;;42.25;28.15;;;;;;;15.56;46.45;101472.81;2858035;81;21037;-72
2022/03/25 10:29:25;;;;;;;40.70;26.15;;;;;;;15.75;43.92;101475.28;2880026;81;21029;-69
2022/03/25 10:33:34;;;;;;;42.23;29.32;;;;;;;15.93;43.08;101466.67;2871206;81;21069;-72
2022/03/25 10:37:38;;;;;;;49.08;26.60;;;;;;;15.94;42.79;101465.69;2871731;81;21018;-72
2022/03/25 10:41:45;;;;;;;41.60;27.40;;;;;;;15.95;42.02;101467.38;2869550;81;21640;-72
2022/03/25 10:45:47;;;;;;;42.30;25.30;;;;;;;16.12;42.84;101464.09;2871094;81;21034;-72
2022/03/25 10:49:49;;;;;;;44.95;30.08;;;;;;;16.31;42.17;101469.67;2861684;81;21021;-72
2022/03/25 10:54:07;;;;;;;36.60;26.37;;;;;;;16.40;41.82;101467.51;2885782;81;21033;-70
2022/03/25 10:58:08;;;;;;;38.45;24.95;;;;;;;16.39;41.79;101463.98;2879558;81;21058;-73
2022/03/25 11:02:11;;;;;;;34.70;24.43;;;;;;;16.44;42.16;101459.56;2873344;81;21046;-71
2022/03/25 11:06:16;;;;;;;33.92;22.73;;;;;;;16.52;40.68;101456.20;2869251;81;21081;-73
2022/03/25 11:10:18;;;;;;;42.93;24.92;;;;;;;16.53;40.78;101454.70;2858932;81;21041;-71
2022/03/25 11:14:20;;;;;;;33.80;22.80;;;;;;;16.59;40.54;101451.97;2866628;81;21018;-73
2022/03/25 11:18:23;;;;;;;40.38;25.68;;;;;;;16.69;41.42;101447.45;2874972;81;21124;-71
2022/03/25 11:22:25;;;;;;;42.30;24.20;;;;;;;16.76;41.37;101441.55;2862781;81;21022;-72
2022/03/25 11:26:29;;;;;;;40.17;24.07;;;;;;;16.71;41.51;101439.27;2857016;81;21046;-71
2022/03/25 11:30:35;;;;;;;34.38;22.85;;;;;;;16.62;41.37;101432.05;2861844;81;21065;-70
2022/03/25 11:34:58;;;;;;;;;;;;;;;16.59;39.72;101434.52;2859427;81;21045;-69
2022/03/25 11:39:22;;;;;;;38.35;25.40;;;;;;;16.75;41.70;101423.73;2853147;81;20136;-71
2022/03/25 11:43:27;;;;;;;35.98;22.02;;;;;;;16.87;41.28;101418.58;2861404;81;21042;-70
2022/03/25 11:47:28;;;;;;;33.98;22.80;;;;;;;16.92;40.81;101413.66;2857336;81;21037;-68
2022/03/25 11:51:33;;;;;;;32.35;22.87;;;;;;;16.94;39.40;101407.64;2870080;81;20982;-71
2022/03/25 11:56:06;;;;;;;35.30;23.10;;;;;;;17.10;41.77;101403.58;2877916;81;21041;-71
2022/03/25 12:00:12;;;;;;;38.92;23.00;;;;;;;17.15;39.38;101402.66;2865992;81;21033;-71
2022/03/25 12:04:31;;;;;;;36.60;20.97;;;;;;;17.16;39.92;101401.66;2862885;81;21006;-71
2022/03/25 12:08:35;;;;;;;38.33;22.02;;;;;;;17.16;40.02;101398.97;2858335;81;21038;-71
2022/03/25 12:12:53;;;;;;;35.15;21.85;;;;;;;17.14;39.95;101387.52;2859728;81;21041;-70
2022/03/25 12:17:03;;;;;;;71.42;27.50;;;;;;;17.24;41.76;101380.79;2869503;81;21022;-70
2022/03/25 12:21:05;;;;;;;27.48;18.87;;;;;;;17.15;41.21;101377.11;2866229;81;20994;-69
2022/03/25 12:25:11;;;;;;;30.70;19.45;;;;;;;17.06;38.86;101373.44;2853393;81;21045;-68
2022/03/25 12:29:12;;;;;;;;;;;;;;;17.20;41.10;101374.00;2863728;81;21037;-71
2022/03/25 12:33:15;;;;;;;29.37;17.77;;;;;;;17.18;39.98;101371.93;2876701;81;20119;-69
2022/03/25 12:37:39;;;;;;;31.62;21.23;;;;;;;17.26;39.94;101361.33;2863026;81;21034;-70
2022/03/25 12:41:47;;;;;;;27.20;17.98;;;;;;;17.43;38.16;101361.08;2862731;81;21089;-70
2022/03/25 12:45:49;;;;;;;27.32;17.77;;;;;;;17.58;39.48;101358.77;2877539;81;21033;-68
2022/03/25 12:49:58;;;;;;;23.80;15.32;;;;;;;17.53;38.20;101351.16;2870345;81;20978;-70
2022/03/25 12:54:02;;;;;;;29.30;19.48;;;;;;;17.66;40.59;101344.11;2869031;81;21108;-72
2022/03/25 12:58:08;;;;;;;23.00;15.43;;;;;;;17.65;38.90;101342.89;2857225;81;21046;-68
2022/03/25 13:02:13;;;;;;;33.02;14.93;;;;;;;17.44;37.84;101319.73;2857743;81;21013;-71
2022/03/25 13:06:17;;;;;;;26.87;15.78;;;;;;;17.44;37.84;101319.73;2858049;81;21045;-73
2022/03/25 13:10:19;;;;;;;17.37;13.03;;;;;;;17.78;36.86;101335.34;2870269;81;21014;-70
2022/03/25 13:14:21;;;;;;;27.82;13.45;;;;;;;17.77;34.75;101336.34;2867127;81;21008;-70
2022/03/25 13:18:23;;;;;;;16.27;11.20;;;;;;;17.77;35.30;101322.89;2871135;81;21034;-68
2022/03/25 13:22:24;;;;;;;24.50;13.28;;;;;;;17.69;33.88;101333.56;2864731;81;21081;-70
2022/03/25 13:26:28;;;;;;;18.87;11.30;;;;;;;17.66;32.04;101325.75;2860498;81;21037;-70
2022/03/25 13:30:31;;;;;;;17.42;12.80;;;;;;;17.80;33.57;101321.25;2859218;81;20998;-71
2022/03/25 13:34:35;;;;;;;37.65;13.80;;;;;;;17.90;34.04;101317.16;2861829;81;21077;-70
2022/03/25 13:38:44;;;;;;;16.97;10.60;;;;;;;17.84;34.34;101318.60;2860846;81;21010;-70
2022/03/25 13:42:51;;;;;;;18.82;13.28;;;;;;;17.99;36.19;101318.11;2863440;81;20998;-71
2022/03/25 13:47:08;;;;;;;22.58;12.78;;;;;;;18.12;36.57;101317.79;2870730;81;21085;-72
2022/03/25 13:51:24;;;;;;;14.95;8.73;;;;;;;18.11;35.70;101311.58;2869955;81;21033;-68
2022/03/25 13:55:36;;;;;;;16.85;12.23;;;;;;;18.04;35.96;101313.16;2872093;81;21061;-70
2022/03/25 13:59:43;;;;;;;15.30;10.15;;;;;;;17.96;34.90;101306.30;2862777;81;21018;-65
2022/03/25 14:03:45;;;;;;;17.73;9.78;;;;;;;18.09;35.08;101313.58;2854848;81;21054;-66
2022/03/25 14:07:47;;;;;;;14.65;9.35;;;;;;;18.07;34.89;101308.81;2875758;81;20978;-64
2022/03/25 14:11:48;;;;;;;19.05;10.23;;;;;;;18.10;35.42;101308.53;2838766;80;21094;-65
2022/03/25 14:15:50;;;;;;;21.35;11.50;;;;;;;18.02;38.03;101306.24;2833043;81;21035;-65
2022/03/25 14:20:02;;;;;;;25.60;13.88;;;;;;;18.07;38.74;101295.34;2864548;82;21072;-66
2022/03/25 14:28:22;;;;;;;21.42;12.58;;;;;;;18.21;40.02;101298.53;2853965;81;21008;-68
2022/03/25 14:32:24;;;;;;;15.83;10.53;;;;;;;18.21;40.11;101299.40;2855113;81;21023;-66
2022/03/25 14:36:25;;;;;;;20.85;10.53;;;;;;;18.21;41.12;101291.32;2851840;82;21005;-66
2022/03/25 14:40:27;;;;;;;16.40;9.45;;;;;;;18.18;38.56;101287.59;2853663;82;21461;-65
2022/03/25 14:44:30;;;;;;;24.30;10.85;;;;;;;17.93;40.16;101289.11;2855488;82;21034;-68
2022/03/25 14:48:31;;;;;;;17.37;8.88;;;;;;;17.80;38.80;101282.22;2855092;82;21061;-64
2022/03/25 14:52:35;;;;;;;28.02;10.80;;;;;;;17.78;39.89;101286.91;2856612;82;21046;-63
2022/03/25 14:56:37;;;;;;;18.25;9.63;;;;;;;17.59;39.17;101275.75;2856038;82;21080;-62
2022/03/25 15:00:38;;;;;;;28.38;10.48;;;;;;;17.65;39.30;101276.50;2856793;82;21069;-62
2022/03/25 15:04:40;;;;;;;28.05;13.50;;;;;;;17.59;40.25;101273.06;2855445;82;21042;-62
2022/03/25 15:08:44;;;;;;;27.15;13.58;;;;;;;17.56;40.23;101266.61;2856234;81;21085;-62
2022/03/25 15:12:48;;;;;;;16.02;10.70;;;;;;;17.58;39.13;101263.78;2906743;80;21053;-62
2022/03/25 15:16:49;;;;;;;24.57;14.40;;;;;;;17.61;40.54;101259.44;2904756;80;20991;-62
2022/03/25 15:20:51;;;;;;;23.45;15.83;;;;;;;17.62;39.66;101263.34;2902787;80;21042;-62
2022/03/25 15:24:52;;;;;;;27.52;17.35;;;;;;;17.58;41.44;101260.58;2904203;80;20998;-62
2022/03/25 15:28:54;;;;;;;31.15;17.35;;;;;;;17.45;41.44;101262.77;2905197;80;21069;-62
2022/03/25 15:37:11;;;;;;;26.00;14.73;;;;;;;17.45;42.91;101260.91;2897440;80;21018;-62
2022/03/25 15:41:13;;;;;;;27.13;15.15;;;;;;;17.30;42.49;101263.75;2870830;80;21023;-62
2022/03/25 15:45:14;;;;;;;25.77;17.55;;;;;;;17.21;41.99;101263.61;2880072;81;21089;-62
2022/03/25 15:49:16;;;;;;;25.45;16.62;;;;;;;17.13;41.85;101256.27;2880336;80;21121;-62
2022/03/25 15:53:17;;;;;;;25.72;18.12;;;;;;;16.98;43.52;101258.58;2881416;80;21101;-62
2022/03/25 15:57:20;;;;;;;26.42;17.45;;;;;;;16.95;44.79;101257.97;2885743;81;21021;-61
2022/03/25 16:01:22;;;;;;;32.60;18.48;;;;;;;16.85;42.30;101256.64;2879723;81;21092;-63
2022/03/25 16:05:24;;;;;;;31.82;20.00;;;;;;;16.88;44.72;101256.36;2881370;81;21534;-63
2022/03/25 16:09:27;;;;;;;34.53;19.65;;;;;;;16.85;45.95;101257.99;2881753;81;21028;-63
2022/03/25 16:13:30;;;;;;;29.25;19.50;;;;;;;16.79;45.88;101263.95;2900690;79;21134;-64
2022/03/25 16:17:32;;;;;;;36.15;21.57;;;;;;;16.71;46.50;101261.97;2893462;79;21047;-63
2022/03/25 16:21:33;;;;;;;36.60;22.27;;;;;;;16.56;47.03;101258.88;2885834;79;21051;-62
2022/03/25 16:25:36;;;;;;;37.20;22.17;;;;;;;16.29;48.19;101261.73;2920289;80;21862;-62
2022/03/25 16:29:38;;;;;;;41.25;25.95;;;;;;;16.01;49.71;101265.58;2903985;79;21126;-61
2022/03/25 16:33:42;;;;;;;36.85;23.73;;;;;;;15.87;49.09;101273.98;2911501;80;21110;-63
2022/03/25 16:37:45;;;;;;;38.15;24.12;;;;;;;15.79;49.51;101267.95;2897189;79;21090;-63
2022/03/25 16:41:47;;;;;;;38.55;24.87;;;;;;;15.72;48.66;101271.66;2899219;80;21046;-63
2022/03/25 16:45:50;;;;;;;40.05;28.52;;;;;;;15.63;48.26;101273.83;2900835;80;21088;-63
2022/03/25 16:49:51;;;;;;;34.03;24.82;;;;;;;15.49;48.89;101273.19;2937650;79;21179;-63
2022/03/25 16:53:53;;;;;;;37.25;25.80;;;;;;;15.35;48.93;101274.91;2890620;81;21426;-63
2022/03/25 16:57:55;;;;;;;44.30;25.62;;;;;;;15.13;49.08;101268.69;2892206;81;21013;-63
2022/03/25 17:01:58;;;;;;;42.35;24.60;;;;;;;14.89;49.39;101267.13;2890569;80;21021;-63
2022/03/25 17:06:01;;;;;;;38.88;27.10;;;;;;;14.71;49.59;101272.23;2891753;81;21033;-63
2022/03/25 17:10:03;;;;;;;48.30;25.08;;;;;;;14.49;49.86;101267.77;2889379;80;21044;-63
2022/03/25 17:14:05;;;;;;;50.35;35.08;;;;;;;14.31;50.43;101269.65;2888389;79;21043;-63
2022/03/25 17:18:07;;;;;;;62.35;32.42;;;;;;;14.06;50.42;101272.16;2895856;79;21031;-63
2022/03/25 17:22:09;;;;;;;39.73;27.27;;;;;;;13.91;50.23;101276.91;2901706;79;21032;-64
2022/03/25 17:26:19;;;;;;;65.62;33.28;;;;;;;13.81;50.33;101274.98;2903706;80;21026;-63
2022/03/25 17:30:17;;;;;;;90.38;45.85;;;;;;;13.70;50.66;101278.52;2903152;80;21049;-63
2022/03/25 17:34:19;;;;;;;63.98;41.80;;;;;;;13.53;51.00;101279.83;2902377;80;21026;-63
2022/03/25 17:38:21;;;;;;;59.67;36.63;;;;;;;13.33;51.12;101285.39;2902103;80;21125;-63
2022/03/25 17:42:23;;;;;;;62.17;38.83;;;;;;;13.16;51.24;101288.01;2903881;82;21018;-63
2022/03/25 17:46:25;;;;;;;79.60;54.23;;;;;;;12.97;51.60;101290.78;2899113;80;21030;-63
2022/03/25 17:50:27;;;;;;;132.75;64.17;;;;;;;12.81;51.66;101292.91;2902607;80;21021;-63
2022/03/25 17:54:30;;;;;;;80.15;39.85;;;;;;;12.62;51.80;101295.63;2902007;80;21085;-63
2022/03/25 17:58:32;;;;;;;52.30;32.20;;;;;;;12.44;52.22;101300.49;2903508;80;21089;-63
2022/03/25 18:02:33;;;;;;;42.90;28.10;;;;;;;12.26;52.47;101302.70;2900404;80;21089;-63
2022/03/25 18:06:35;;;;;;;64.60;34.18;;;;;;;12.09;52.82;101304.78;2900729;80;21030;-63
2022/03/25 18:10:39;;;;;;;59.53;28.15;;;;;;;11.96;52.92;101310.58;2864615;80;21101;-63
2022/03/25 18:14:41;;;;;;;62.83;28.55;;;;;;;11.79;52.91;101311.33;2819657;82;21101;-61
2022/03/25 18:18:44;;;;;;;43.33;28.07;;;;;;;11.64;53.54;101318.56;2846121;81;21057;-62
2022/03/25 18:22:45;;;;;;;200.32;54.23;;;;;;;11.46;54.54;101320.71;2855294;81;21459;-62
2022/03/25 18:26:47;;;;;;;98.07;38.38;;;;;;;11.28;55.38;101319.69;2866654;80;21085;-61
2022/03/25 18:30:49;;;;;;;46.18;28.52;;;;;;;11.09;55.10;101318.73;2884958;81;21057;-61
2022/03/25 18:34:52;;;;;;;42.58;28.07;;;;;;;10.96;55.43;101324.05;2894699;80;21057;-61
2022/03/25 18:38:54;;;;;;;41.28;27.40;;;;;;;10.86;55.60;101323.80;2899052;80;21439;-62
2022/03/25 18:42:56;;;;;;;43.33;29.02;;;;;;;10.76;55.87;101325.84;2975073;79;21032;-61
2022/03/25 18:46:57;;;;;;;54.08;30.48;;;;;;;10.65;55.79;101324.77;2983388;79;21049;-61
2022/03/25 18:50:59;;;;;;;49.98;28.92;;;;;;;10.57;55.92;101331.92;2994537;78;21537;-61
2022/03/25 18:55:01;;;;;;;65.15;31.07;;;;;;;10.47;56.52;101331.28;2970928;79;21076;-61